sensor_id;sensor_type;location;lat;lon;timestamp;P1;durP1;ratioP1;P2;durP2;ratioP2
10721;SDS011;5412;59.450;18.124;2023-03-01T00:01:58;1.53;;;0.90;;
10721;SDS011;5412;59.450;18.124;2023-03-01T00:04:24;2.27;;;0.80;;
10721;SDS011;5412;59.450;18.124;2023-03-01T00:06:50;4.27;;;0.80;;
10721;SDS011;5412;59.450;18.124;2023-03-01T00:09:16;5.43;;;1.40;;
10721;SDS011;5412;59.450;18.124;2023-03-01T00:11:43;5.47;;;1.83;;
10721;SDS011;5412;59.450;18.124;2023-03-01T00:14:08;3.80;;;1.27;;
10721;SDS011;5412;59.450;18.124;2023-03-01T00:16:38;4.03;;;0.70;;
10721;SDS011;5412;59.450;18.124;2023-03-01T00:19:07;5.00;;;1.30;;
10721;SDS011;5412;59.450;18.124;2023-03-01T00:21:36;2.60;;;0.80;;
10721;SDS011;5412;59.450;18.124;2023-03-01T00:24:02;2.63;;;1.27;;
10721;SDS011;5412;59.450;18.124;2023-03-01T00:26:28;4.40;;;1.20;;
10721;SDS011;5412;59.450;18.124;2023-03-01T00:28:54;3.03;;;1.00;;
10721;SDS011;5412;59.450;18.124;2023-03-01T00:31:23;3.07;;;0.80;;
10721;SDS011;5412;59.450;18.124;2023-03-01T00:33:55;1.87;;;0.90;;
10721;SDS011;5412;59.450;18.124;2023-03-01T00:36:22;3.03;;;1.03;;
10721;SDS011;5412;59.450;18.124;2023-03-01T00:38:50;2.00;;;1.00;;
10721;SDS011;5412;59.450;18.124;2023-03-01T00:41:17;1.40;;;0.93;;
10721;SDS011;5412;59.450;18.124;2023-03-01T00:43:44;1.47;;;0.80;;
10721;SDS011;5412;59.450;18.124;2023-03-01T00:46:11;5.83;;;1.10;;
10721;SDS011;5412;59.450;18.124;2023-03-01T00:48:38;6.17;;;1.20;;
10721;SDS011;5412;59.450;18.124;2023-03-01T00:51:05;4.70;;;1.03;;
10721;SDS011;5412;59.450;18.124;2023-03-01T00:53:36;7.33;;;1.00;;
10721;SDS011;5412;59.450;18.124;2023-03-01T00:56:03;8.30;;;1.30;;
10721;SDS011;5412;59.450;18.124;2023-03-01T00:58:31;3.90;;;1.10;;
10721;SDS011;5412;59.450;18.124;2023-03-01T01:00:57;1.97;;;0.90;;
10721;SDS011;5412;59.450;18.124;2023-03-01T01:03:23;2.47;;;1.10;;
10721;SDS011;5412;59.450;18.124;2023-03-01T01:05:50;3.53;;;0.70;;
10721;SDS011;5412;59.450;18.124;2023-03-01T01:08:19;1.87;;;0.73;;
10721;SDS011;5412;59.450;18.124;2023-03-01T01:10:46;3.27;;;1.00;;
10721;SDS011;5412;59.450;18.124;2023-03-01T01:13:12;1.97;;;1.00;;
10721;SDS011;5412;59.450;18.124;2023-03-01T01:15:39;4.37;;;0.90;;
10721;SDS011;5412;59.450;18.124;2023-03-01T01:18:05;5.00;;;0.90;;
10721;SDS011;5412;59.450;18.124;2023-03-01T01:20:31;5.23;;;1.43;;
10721;SDS011;5412;59.450;18.124;2023-03-01T01:22:57;3.03;;;0.90;;
10721;SDS011;5412;59.450;18.124;2023-03-01T01:25:23;1.93;;;0.70;;
10721;SDS011;5412;59.450;18.124;2023-03-01T01:27:52;4.33;;;1.00;;
10721;SDS011;5412;59.450;18.124;2023-03-01T01:30:17;1.63;;;1.10;;
10721;SDS011;5412;59.450;18.124;2023-03-01T01:32:43;2.30;;;1.13;;
10721;SDS011;5412;59.450;18.124;2023-03-01T01:35:09;1.37;;;1.00;;
10721;SDS011;5412;59.450;18.124;2023-03-01T01:37:35;3.53;;;0.90;;
10721;SDS011;5412;59.450;18.124;2023-03-01T01:40:01;1.83;;;0.90;;
10721;SDS011;5412;59.450;18.124;2023-03-01T01:42:31;2.37;;;1.30;;
10721;SDS011;5412;59.450;18.124;2023-03-01T01:48:04;2.07;;;0.80;;
10721;SDS011;5412;59.450;18.124;2023-03-01T01:50:35;1.50;;;0.73;;
10721;SDS011;5412;59.450;18.124;2023-03-01T01:53:06;3.20;;;0.60;;
10721;SDS011;5412;59.450;18.124;2023-03-01T01:55:39;3.60;;;1.30;;
10721;SDS011;5412;59.450;18.124;2023-03-01T01:58:09;2.60;;;0.83;;
10721;SDS011;5412;59.450;18.124;2023-03-01T02:00:37;6.07;;;2.10;;
10721;SDS011;5412;59.450;18.124;2023-03-01T02:03:11;2.03;;;1.13;;
10721;SDS011;5412;59.450;18.124;2023-03-01T02:05:49;4.23;;;1.17;;
10721;SDS011;5412;59.450;18.124;2023-03-01T02:08:26;1.90;;;0.73;;
10721;SDS011;5412;59.450;18.124;2023-03-01T02:10:55;3.67;;;0.90;;
10721;SDS011;5412;59.450;18.124;2023-03-01T02:13:23;1.77;;;0.73;;
10721;SDS011;5412;59.450;18.124;2023-03-01T02:15:49;1.93;;;0.77;;
10721;SDS011;5412;59.450;18.124;2023-03-01T02:18:17;1.63;;;0.80;;
10721;SDS011;5412;59.450;18.124;2023-03-01T02:20:51;1.83;;;1.00;;
10721;SDS011;5412;59.450;18.124;2023-03-01T02:23:30;2.60;;;0.80;;
10721;SDS011;5412;59.450;18.124;2023-03-01T02:28:33;2.00;;;0.80;;
10721;SDS011;5412;59.450;18.124;2023-03-01T02:31:04;4.07;;;1.57;;
10721;SDS011;5412;59.450;18.124;2023-03-01T02:33:50;2.30;;;0.80;;
10721;SDS011;5412;59.450;18.124;2023-03-01T02:36:25;2.60;;;1.00;;
10721;SDS011;5412;59.450;18.124;2023-03-01T02:38:56;3.23;;;0.70;;
10721;SDS011;5412;59.450;18.124;2023-03-01T02:41:23;1.00;;;0.90;;
10721;SDS011;5412;59.450;18.124;2023-03-01T02:43:51;2.93;;;0.90;;
10721;SDS011;5412;59.450;18.124;2023-03-01T02:46:18;3.87;;;0.70;;
10721;SDS011;5412;59.450;18.124;2023-03-01T02:56:48;1.53;;;0.90;;
10721;SDS011;5412;59.450;18.124;2023-03-01T02:59:16;2.37;;;1.00;;
10721;SDS011;5412;59.450;18.124;2023-03-01T03:01:43;1.80;;;0.90;;
10721;SDS011;5412;59.450;18.124;2023-03-01T03:04:10;2.10;;;1.03;;
10721;SDS011;5412;59.450;18.124;2023-03-01T03:06:42;2.93;;;1.03;;
10721;SDS011;5412;59.450;18.124;2023-03-01T03:09:08;2.93;;;0.97;;
10721;SDS011;5412;59.450;18.124;2023-03-01T03:11:34;2.70;;;0.90;;
10721;SDS011;5412;59.450;18.124;2023-03-01T03:14:01;1.87;;;0.60;;
10721;SDS011;5412;59.450;18.124;2023-03-01T03:16:28;2.87;;;0.97;;
10721;SDS011;5412;59.450;18.124;2023-03-01T03:18:54;1.47;;;0.67;;
10721;SDS011;5412;59.450;18.124;2023-03-01T03:21:30;2.43;;;0.80;;
10721;SDS011;5412;59.450;18.124;2023-03-01T03:23:59;2.63;;;1.10;;
10721;SDS011;5412;59.450;18.124;2023-03-01T03:26:25;1.77;;;0.77;;
10721;SDS011;5412;59.450;18.124;2023-03-01T03:28:51;1.43;;;0.67;;
10721;SDS011;5412;59.450;18.124;2023-03-01T03:31:17;3.23;;;0.70;;
10721;SDS011;5412;59.450;18.124;2023-03-01T03:33:43;1.53;;;0.83;;
10721;SDS011;5412;59.450;18.124;2023-03-01T03:36:09;0.80;;;0.80;;
10721;SDS011;5412;59.450;18.124;2023-03-01T03:38:38;1.30;;;0.87;;
10721;SDS011;5412;59.450;18.124;2023-03-01T03:41:05;1.17;;;0.90;;
10721;SDS011;5412;59.450;18.124;2023-03-01T03:43:36;2.23;;;1.03;;
10721;SDS011;5412;59.450;18.124;2023-03-01T03:46:02;1.50;;;0.73;;
10721;SDS011;5412;59.450;18.124;2023-03-01T03:48:31;1.87;;;0.67;;
10721;SDS011;5412;59.450;18.124;2023-03-01T03:51:00;1.97;;;0.67;;
10721;SDS011;5412;59.450;18.124;2023-03-01T03:53:27;3.77;;;0.80;;
10721;SDS011;5412;59.450;18.124;2023-03-01T03:55:54;2.23;;;0.97;;
10721;SDS011;5412;59.450;18.124;2023-03-01T03:58:21;8.20;;;1.33;;
10721;SDS011;5412;59.450;18.124;2023-03-01T04:00:49;1.73;;;0.83;;
10721;SDS011;5412;59.450;18.124;2023-03-01T04:03:16;0.90;;;0.60;;
10721;SDS011;5412;59.450;18.124;2023-03-01T04:05:44;4.07;;;0.70;;
10721;SDS011;5412;59.450;18.124;2023-03-01T04:08:10;1.13;;;0.80;;
10721;SDS011;5412;59.450;18.124;2023-03-01T04:10:40;3.27;;;1.10;;
10721;SDS011;5412;59.450;18.124;2023-03-01T04:13:11;1.37;;;0.90;;
10721;SDS011;5412;59.450;18.124;2023-03-01T04:15:38;2.93;;;1.17;;
10721;SDS011;5412;59.450;18.124;2023-03-01T04:18:04;0.77;;;0.60;;
10721;SDS011;5412;59.450;18.124;2023-03-01T04:20:33;2.83;;;0.87;;
10721;SDS011;5412;59.450;18.124;2023-03-01T04:23:01;0.87;;;0.70;;
10721;SDS011;5412;59.450;18.124;2023-03-01T04:25:36;3.30;;;0.70;;
10721;SDS011;5412;59.450;18.124;2023-03-01T04:28:07;1.17;;;0.57;;
10721;SDS011;5412;59.450;18.124;2023-03-01T04:30:34;1.13;;;0.73;;
10721;SDS011;5412;59.450;18.124;2023-03-01T04:33:02;2.10;;;0.67;;
10721;SDS011;5412;59.450;18.124;2023-03-01T04:35:29;0.43;;;0.43;;
10721;SDS011;5412;59.450;18.124;2023-03-01T04:37:56;1.27;;;0.70;;
10721;SDS011;5412;59.450;18.124;2023-03-01T04:40:21;0.73;;;0.70;;
10721;SDS011;5412;59.450;18.124;2023-03-01T04:42:47;2.80;;;0.70;;
10721;SDS011;5412;59.450;18.124;2023-03-01T04:45:13;5.40;;;0.93;;
10721;SDS011;5412;59.450;18.124;2023-03-01T04:47:39;0.83;;;0.50;;
10721;SDS011;5412;59.450;18.124;2023-03-01T04:50:06;1.33;;;0.60;;
10721;SDS011;5412;59.450;18.124;2023-03-01T04:52:33;1.90;;;0.50;;
10721;SDS011;5412;59.450;18.124;2023-03-01T04:54:59;1.73;;;0.80;;
10721;SDS011;5412;59.450;18.124;2023-03-01T04:57:24;0.90;;;0.60;;
10721;SDS011;5412;59.450;18.124;2023-03-01T04:59:50;0.77;;;0.60;;
10721;SDS011;5412;59.450;18.124;2023-03-01T05:02:16;0.93;;;0.60;;
10721;SDS011;5412;59.450;18.124;2023-03-01T05:04:42;3.07;;;0.60;;
10721;SDS011;5412;59.450;18.124;2023-03-01T05:07:07;2.00;;;0.93;;
10721;SDS011;5412;59.450;18.124;2023-03-01T05:09:33;0.37;;;0.37;;
10721;SDS011;5412;59.450;18.124;2023-03-01T05:11:59;2.00;;;0.50;;
10721;SDS011;5412;59.450;18.124;2023-03-01T05:14:24;1.13;;;0.60;;
10721;SDS011;5412;59.450;18.124;2023-03-01T05:16:50;0.90;;;0.50;;
10721;SDS011;5412;59.450;18.124;2023-03-01T05:19:16;1.13;;;0.70;;
10721;SDS011;5412;59.450;18.124;2023-03-01T05:21:47;1.60;;;0.60;;
10721;SDS011;5412;59.450;18.124;2023-03-01T05:24:33;7.23;;;0.77;;
10721;SDS011;5412;59.450;18.124;2023-03-01T05:27:00;0.60;;;0.50;;
10721;SDS011;5412;59.450;18.124;2023-03-01T05:29:27;0.93;;;0.40;;
10721;SDS011;5412;59.450;18.124;2023-03-01T05:31:54;0.97;;;0.53;;
10721;SDS011;5412;59.450;18.124;2023-03-01T05:34:26;1.23;;;0.70;;
10721;SDS011;5412;59.450;18.124;2023-03-01T05:37:00;2.63;;;0.70;;
10721;SDS011;5412;59.450;18.124;2023-03-01T05:39:27;2.80;;;0.80;;
10721;SDS011;5412;59.450;18.124;2023-03-01T05:41:55;1.80;;;0.60;;
10721;SDS011;5412;59.450;18.124;2023-03-01T05:44:22;0.60;;;0.50;;
10721;SDS011;5412;59.450;18.124;2023-03-01T05:46:49;1.57;;;0.60;;
10721;SDS011;5412;59.450;18.124;2023-03-01T05:49:17;1.53;;;0.40;;
10721;SDS011;5412;59.450;18.124;2023-03-01T05:51:47;0.53;;;0.50;;
10721;SDS011;5412;59.450;18.124;2023-03-01T05:54:14;1.77;;;0.80;;
10721;SDS011;5412;59.450;18.124;2023-03-01T05:56:40;4.27;;;0.50;;
10721;SDS011;5412;59.450;18.124;2023-03-01T05:59:06;0.57;;;0.47;;
10721;SDS011;5412;59.450;18.124;2023-03-01T06:01:32;0.40;;;0.40;;
10721;SDS011;5412;59.450;18.124;2023-03-01T06:03:59;1.67;;;1.10;;
10721;SDS011;5412;59.450;18.124;2023-03-01T06:06:25;0.50;;;0.50;;
10721;SDS011;5412;59.450;18.124;2023-03-01T06:08:51;0.83;;;0.57;;
10721;SDS011;5412;59.450;18.124;2023-03-01T06:11:18;2.00;;;0.70;;
10721;SDS011;5412;59.450;18.124;2023-03-01T06:13:44;0.60;;;0.47;;
10721;SDS011;5412;59.450;18.124;2023-03-01T06:16:11;0.50;;;0.50;;
10721;SDS011;5412;59.450;18.124;2023-03-01T06:18:38;3.33;;;0.60;;
10721;SDS011;5412;59.450;18.124;2023-03-01T06:21:04;1.03;;;0.83;;
10721;SDS011;5412;59.450;18.124;2023-03-01T06:23:31;0.60;;;0.60;;
10721;SDS011;5412;59.450;18.124;2023-03-01T06:25:57;0.70;;;0.50;;
10721;SDS011;5412;59.450;18.124;2023-03-01T06:28:23;0.60;;;0.60;;
10721;SDS011;5412;59.450;18.124;2023-03-01T06:30:49;0.97;;;0.53;;
10721;SDS011;5412;59.450;18.124;2023-03-01T06:33:16;1.40;;;0.80;;
10721;SDS011;5412;59.450;18.124;2023-03-01T06:35:45;0.97;;;0.70;;
10721;SDS011;5412;59.450;18.124;2023-03-01T06:38:11;0.90;;;0.70;;
10721;SDS011;5412;59.450;18.124;2023-03-01T06:40:40;1.90;;;0.70;;
10721;SDS011;5412;59.450;18.124;2023-03-01T06:43:06;1.50;;;0.70;;
10721;SDS011;5412;59.450;18.124;2023-03-01T06:45:32;0.40;;;0.40;;
10721;SDS011;5412;59.450;18.124;2023-03-01T06:48:05;1.70;;;0.50;;
10721;SDS011;5412;59.450;18.124;2023-03-01T06:50:32;1.57;;;0.67;;
10721;SDS011;5412;59.450;18.124;2023-03-01T06:52:58;0.50;;;0.50;;
10721;SDS011;5412;59.450;18.124;2023-03-01T06:55:24;1.10;;;0.60;;
10721;SDS011;5412;59.450;18.124;2023-03-01T06:57:57;2.00;;;0.50;;
10721;SDS011;5412;59.450;18.124;2023-03-01T07:00:24;1.03;;;0.70;;
10721;SDS011;5412;59.450;18.124;2023-03-01T07:02:51;1.83;;;0.60;;
10721;SDS011;5412;59.450;18.124;2023-03-01T07:05:16;1.63;;;0.67;;
10721;SDS011;5412;59.450;18.124;2023-03-01T07:07:42;0.77;;;0.47;;
10721;SDS011;5412;59.450;18.124;2023-03-01T07:10:09;1.20;;;0.60;;
10721;SDS011;5412;59.450;18.124;2023-03-01T07:12:35;0.73;;;0.43;;
10721;SDS011;5412;59.450;18.124;2023-03-01T07:15:01;1.57;;;0.70;;
10721;SDS011;5412;59.450;18.124;2023-03-01T07:17:26;1.10;;;0.50;;
10721;SDS011;5412;59.450;18.124;2023-03-01T07:19:52;1.90;;;0.60;;
10721;SDS011;5412;59.450;18.124;2023-03-01T07:22:18;3.80;;;0.90;;
10721;SDS011;5412;59.450;18.124;2023-03-01T07:24:44;1.77;;;0.60;;
10721;SDS011;5412;59.450;18.124;2023-03-01T07:27:10;0.87;;;0.60;;
10721;SDS011;5412;59.450;18.124;2023-03-01T07:29:37;0.77;;;0.50;;
10721;SDS011;5412;59.450;18.124;2023-03-01T07:32:03;0.67;;;0.53;;
10721;SDS011;5412;59.450;18.124;2023-03-01T07:34:29;2.27;;;0.67;;
10721;SDS011;5412;59.450;18.124;2023-03-01T07:36:55;2.10;;;0.80;;
10721;SDS011;5412;59.450;18.124;2023-03-01T07:39:21;2.10;;;0.50;;
10721;SDS011;5412;59.450;18.124;2023-03-01T07:41:50;1.03;;;0.53;;
10721;SDS011;5412;59.450;18.124;2023-03-01T07:44:16;2.43;;;0.60;;
10721;SDS011;5412;59.450;18.124;2023-03-01T07:46:42;3.90;;;0.60;;
10721;SDS011;5412;59.450;18.124;2023-03-01T07:49:08;1.80;;;0.37;;
10721;SDS011;5412;59.450;18.124;2023-03-01T07:51:34;1.57;;;0.50;;
10721;SDS011;5412;59.450;18.124;2023-03-01T07:54:00;1.27;;;0.50;;
10721;SDS011;5412;59.450;18.124;2023-03-01T07:56:25;0.87;;;0.50;;
10721;SDS011;5412;59.450;18.124;2023-03-01T07:58:51;1.13;;;0.60;;
10721;SDS011;5412;59.450;18.124;2023-03-01T08:01:18;1.00;;;0.50;;
10721;SDS011;5412;59.450;18.124;2023-03-01T08:03:45;0.77;;;0.40;;
10721;SDS011;5412;59.450;18.124;2023-03-01T08:06:12;1.10;;;0.63;;
10721;SDS011;5412;59.450;18.124;2023-03-01T08:08:39;2.03;;;0.80;;
10721;SDS011;5412;59.450;18.124;2023-03-01T08:11:05;1.73;;;0.43;;
10721;SDS011;5412;59.450;18.124;2023-03-01T08:13:32;1.37;;;0.40;;
10721;SDS011;5412;59.450;18.124;2023-03-01T08:16:06;3.03;;;0.50;;
10721;SDS011;5412;59.450;18.124;2023-03-01T08:18:35;0.57;;;0.53;;
10721;SDS011;5412;59.450;18.124;2023-03-01T08:21:03;1.23;;;0.50;;
10721;SDS011;5412;59.450;18.124;2023-03-01T08:23:30;0.40;;;0.40;;
10721;SDS011;5412;59.450;18.124;2023-03-01T08:26:02;0.60;;;0.60;;
10721;SDS011;5412;59.450;18.124;2023-03-01T08:28:42;1.00;;;0.67;;
10721;SDS011;5412;59.450;18.124;2023-03-01T08:31:15;0.73;;;0.43;;
10721;SDS011;5412;59.450;18.124;2023-03-01T08:33:44;4.40;;;0.53;;
10721;SDS011;5412;59.450;18.124;2023-03-01T08:36:15;1.03;;;0.40;;
10721;SDS011;5412;59.450;18.124;2023-03-01T08:38:41;0.67;;;0.50;;
10721;SDS011;5412;59.450;18.124;2023-03-01T08:41:07;1.30;;;0.40;;
10721;SDS011;5412;59.450;18.124;2023-03-01T08:43:33;1.27;;;0.60;;
10721;SDS011;5412;59.450;18.124;2023-03-01T08:45:59;0.73;;;0.50;;
10721;SDS011;5412;59.450;18.124;2023-03-01T08:48:24;6.60;;;0.80;;
10721;SDS011;5412;59.450;18.124;2023-03-01T08:50:52;1.20;;;0.67;;
10721;SDS011;5412;59.450;18.124;2023-03-01T08:53:18;0.53;;;0.53;;
10721;SDS011;5412;59.450;18.124;2023-03-01T08:55:43;0.87;;;0.40;;
10721;SDS011;5412;59.450;18.124;2023-03-01T08:58:09;1.50;;;0.50;;
10721;SDS011;5412;59.450;18.124;2023-03-01T09:00:35;0.30;;;0.30;;
10721;SDS011;5412;59.450;18.124;2023-03-01T09:03:01;0.20;;;0.20;;
10721;SDS011;5412;59.450;18.124;2023-03-01T09:05:27;1.60;;;0.40;;
10721;SDS011;5412;59.450;18.124;2023-03-01T09:07:52;0.37;;;0.30;;
10721;SDS011;5412;59.450;18.124;2023-03-01T09:10:18;0.93;;;0.40;;
10721;SDS011;5412;59.450;18.124;2023-03-01T09:12:44;2.30;;;0.67;;
10721;SDS011;5412;59.450;18.124;2023-03-01T09:15:10;2.70;;;1.13;;
10721;SDS011;5412;59.450;18.124;2023-03-01T09:17:36;3.47;;;0.57;;
10721;SDS011;5412;59.450;18.124;2023-03-01T09:20:01;0.40;;;0.40;;
10721;SDS011;5412;59.450;18.124;2023-03-01T09:22:30;2.20;;;0.50;;
10721;SDS011;5412;59.450;18.124;2023-03-01T09:24:58;1.00;;;0.60;;
10721;SDS011;5412;59.450;18.124;2023-03-01T09:27:24;3.93;;;0.70;;
10721;SDS011;5412;59.450;18.124;2023-03-01T09:29:50;1.40;;;0.60;;
10721;SDS011;5412;59.450;18.124;2023-03-01T09:32:15;1.83;;;0.47;;
10721;SDS011;5412;59.450;18.124;2023-03-01T09:34:41;0.67;;;0.50;;
10721;SDS011;5412;59.450;18.124;2023-03-01T09:37:26;0.67;;;0.53;;
10721;SDS011;5412;59.450;18.124;2023-03-01T09:39:52;1.27;;;0.73;;
10721;SDS011;5412;59.450;18.124;2023-03-01T09:42:18;1.17;;;0.50;;
10721;SDS011;5412;59.450;18.124;2023-03-01T09:44:46;0.60;;;0.40;;
10721;SDS011;5412;59.450;18.124;2023-03-01T09:47:20;1.07;;;0.70;;
10721;SDS011;5412;59.450;18.124;2023-03-01T10:00:53;0.53;;;0.53;;
10721;SDS011;5412;59.450;18.124;2023-03-01T10:03:28;0.43;;;0.43;;
10721;SDS011;5412;59.450;18.124;2023-03-01T10:06:06;0.97;;;0.43;;
10721;SDS011;5412;59.450;18.124;2023-03-01T10:11:05;0.67;;;0.30;;
10721;SDS011;5412;59.450;18.124;2023-03-01T10:17:04;1.00;;;0.43;;
10721;SDS011;5412;59.450;18.124;2023-03-01T10:22:20;0.70;;;0.50;;
10721;SDS011;5412;59.450;18.124;2023-03-01T10:24:50;0.83;;;0.60;;
10721;SDS011;5412;59.450;18.124;2023-03-01T10:27:24;0.67;;;0.40;;
10721;SDS011;5412;59.450;18.124;2023-03-01T10:30:10;0.50;;;0.50;;
10721;SDS011;5412;59.450;18.124;2023-03-01T10:32:41;0.40;;;0.40;;
10721;SDS011;5412;59.450;18.124;2023-03-01T10:35:18;0.40;;;0.40;;
10721;SDS011;5412;59.450;18.124;2023-03-01T10:38:02;1.60;;;0.60;;
10721;SDS011;5412;59.450;18.124;2023-03-01T10:40:33;0.33;;;0.33;;
10721;SDS011;5412;59.450;18.124;2023-03-01T10:43:01;0.80;;;0.50;;
10721;SDS011;5412;59.450;18.124;2023-03-01T10:48:13;1.80;;;0.60;;
10721;SDS011;5412;59.450;18.124;2023-03-01T10:53:25;0.40;;;0.30;;
10721;SDS011;5412;59.450;18.124;2023-03-01T10:55:58;0.27;;;0.27;;
10721;SDS011;5412;59.450;18.124;2023-03-01T10:58:27;0.30;;;0.30;;
10721;SDS011;5412;59.450;18.124;2023-03-01T11:00:54;0.47;;;0.47;;
10721;SDS011;5412;59.450;18.124;2023-03-01T11:08:34;1.20;;;0.40;;
10721;SDS011;5412;59.450;18.124;2023-03-01T11:13:37;1.70;;;0.47;;
10721;SDS011;5412;59.450;18.124;2023-03-01T11:16:16;1.37;;;0.33;;
10721;SDS011;5412;59.450;18.124;2023-03-01T11:19:00;0.90;;;0.43;;
10721;SDS011;5412;59.450;18.124;2023-03-01T11:24:43;0.40;;;0.30;;
10721;SDS011;5412;59.450;18.124;2023-03-01T11:27:16;1.20;;;0.33;;
10721;SDS011;5412;59.450;18.124;2023-03-01T11:29:59;0.97;;;0.40;;
10721;SDS011;5412;59.450;18.124;2023-03-01T11:32:32;2.77;;;0.40;;
10721;SDS011;5412;59.450;18.124;2023-03-01T11:35:17;0.60;;;0.40;;
10721;SDS011;5412;59.450;18.124;2023-03-01T11:40:52;0.40;;;0.30;;
10721;SDS011;5412;59.450;18.124;2023-03-01T11:56:52;0.20;;;0.20;;
10721;SDS011;5412;59.450;18.124;2023-03-01T12:04:54;0.80;;;0.40;;
10721;SDS011;5412;59.450;18.124;2023-03-01T12:10:52;0.43;;;0.40;;
10721;SDS011;5412;59.450;18.124;2023-03-01T12:24:05;0.30;;;0.30;;
10721;SDS011;5412;59.450;18.124;2023-03-01T12:27:10;1.13;;;0.43;;
10721;SDS011;5412;59.450;18.124;2023-03-01T12:32:51;2.55;;;0.55;;
10721;SDS011;5412;59.450;18.124;2023-03-01T12:38:33;0.47;;;0.45;;
10721;SDS011;5412;59.450;18.124;2023-03-01T12:46:47;2.55;;;0.40;;
10721;SDS011;5412;59.450;18.124;2023-03-01T12:55:02;0.45;;;0.45;;
10721;SDS011;5412;59.450;18.124;2023-03-01T12:57:41;3.25;;;1.10;;
10721;SDS011;5412;59.450;18.124;2023-03-01T13:10:55;1.67;;;0.30;;
10721;SDS011;5412;59.450;18.124;2023-03-01T13:13:27;2.08;;;0.40;;
10721;SDS011;5412;59.450;18.124;2023-03-01T13:15:54;1.10;;;0.20;;
10721;SDS011;5412;59.450;18.124;2023-03-01T13:20:50;0.52;;;0.50;;
10721;SDS011;5412;59.450;18.124;2023-03-01T13:31:05;0.52;;;0.32;;
10721;SDS011;5412;59.450;18.124;2023-03-01T13:33:38;0.20;;;0.20;;
10721;SDS011;5412;59.450;18.124;2023-03-01T13:36:09;2.40;;;0.35;;
10721;SDS011;5412;59.450;18.124;2023-03-01T13:38:45;0.22;;;0.22;;
10721;SDS011;5412;59.450;18.124;2023-03-01T13:41:12;0.40;;;0.30;;
10721;SDS011;5412;59.450;18.124;2023-03-01T13:43:41;0.60;;;0.30;;
10721;SDS011;5412;59.450;18.124;2023-03-01T13:46:09;0.43;;;0.43;;
10721;SDS011;5412;59.450;18.124;2023-03-01T13:48:45;0.30;;;0.30;;
10721;SDS011;5412;59.450;18.124;2023-03-01T13:51:15;0.70;;;0.35;;
10721;SDS011;5412;59.450;18.124;2023-03-01T13:53:46;0.55;;;0.32;;
10721;SDS011;5412;59.450;18.124;2023-03-01T13:56:13;0.68;;;0.40;;
10721;SDS011;5412;59.450;18.124;2023-03-01T14:01:30;1.15;;;0.43;;
10721;SDS011;5412;59.450;18.124;2023-03-01T14:03:57;0.43;;;0.35;;
10721;SDS011;5412;59.450;18.124;2023-03-01T14:06:33;0.65;;;0.57;;
10721;SDS011;5412;59.450;18.124;2023-03-01T14:09:05;0.30;;;0.30;;
10721;SDS011;5412;59.450;18.124;2023-03-01T14:14:16;0.60;;;0.30;;
10721;SDS011;5412;59.450;18.124;2023-03-01T14:21:42;0.20;;;0.20;;
10721;SDS011;5412;59.450;18.124;2023-03-01T14:24:15;0.95;;;0.30;;
10721;SDS011;5412;59.450;18.124;2023-03-01T14:26:43;0.30;;;0.30;;
10721;SDS011;5412;59.450;18.124;2023-03-01T14:29:33;0.30;;;0.30;;
10721;SDS011;5412;59.450;18.124;2023-03-01T14:32:15;0.22;;;0.22;;
10721;SDS011;5412;59.450;18.124;2023-03-01T14:34:45;0.77;;;0.40;;
10721;SDS011;5412;59.450;18.124;2023-03-01T14:39:55;1.52;;;0.85;;
10721;SDS011;5412;59.450;18.124;2023-03-01T14:42:23;1.20;;;0.50;;
10721;SDS011;5412;59.450;18.124;2023-03-01T14:44:52;2.10;;;0.40;;
10721;SDS011;5412;59.450;18.124;2023-03-01T14:47:23;0.60;;;0.40;;
10721;SDS011;5412;59.450;18.124;2023-03-01T14:50:29;0.28;;;0.28;;
10721;SDS011;5412;59.450;18.124;2023-03-01T14:53:02;1.15;;;0.25;;
10721;SDS011;5412;59.450;18.124;2023-03-01T14:55:31;2.30;;;0.40;;
10721;SDS011;5412;59.450;18.124;2023-03-01T14:58:02;1.05;;;0.30;;
10721;SDS011;5412;59.450;18.124;2023-03-01T15:00:30;0.70;;;0.40;;
10721;SDS011;5412;59.450;18.124;2023-03-01T15:03:00;1.75;;;0.43;;
10721;SDS011;5412;59.450;18.124;2023-03-01T15:05:34;0.28;;;0.20;;
10721;SDS011;5412;59.450;18.124;2023-03-01T15:08:02;0.40;;;0.40;;
10721;SDS011;5412;59.450;18.124;2023-03-01T15:10:30;1.75;;;0.43;;
10721;SDS011;5412;59.450;18.124;2023-03-01T15:13:10;2.15;;;0.38;;
10721;SDS011;5412;59.450;18.124;2023-03-01T15:15:41;0.73;;;0.50;;
10721;SDS011;5412;59.450;18.124;2023-03-01T15:18:13;0.22;;;0.22;;
10721;SDS011;5412;59.450;18.124;2023-03-01T15:20:40;0.60;;;0.50;;
10721;SDS011;5412;59.450;18.124;2023-03-01T15:23:12;1.00;;;0.45;;
10721;SDS011;5412;59.450;18.124;2023-03-01T15:26:01;0.45;;;0.43;;
10721;SDS011;5412;59.450;18.124;2023-03-01T15:28:33;2.30;;;0.30;;
10721;SDS011;5412;59.450;18.124;2023-03-01T15:33:48;1.40;;;0.38;;
10721;SDS011;5412;59.450;18.124;2023-03-01T15:36:31;6.15;;;0.60;;
10721;SDS011;5412;59.450;18.124;2023-03-01T15:38:57;1.13;;;0.60;;
10721;SDS011;5412;59.450;18.124;2023-03-01T15:41:38;1.65;;;0.70;;
10721;SDS011;5412;59.450;18.124;2023-03-01T15:44:25;1.00;;;0.70;;
10721;SDS011;5412;59.450;18.124;2023-03-01T15:46:53;1.15;;;0.90;;
10721;SDS011;5412;59.450;18.124;2023-03-01T15:49:23;1.33;;;0.75;;
10721;SDS011;5412;59.450;18.124;2023-03-01T15:51:57;3.95;;;0.98;;
10721;SDS011;5412;59.450;18.124;2023-03-01T15:54:23;3.13;;;0.75;;
10721;SDS011;5412;59.450;18.124;2023-03-01T15:56:51;5.57;;;0.60;;
10721;SDS011;5412;59.450;18.124;2023-03-01T15:59:17;2.05;;;0.68;;
10721;SDS011;5412;59.450;18.124;2023-03-01T16:01:43;2.80;;;0.57;;
10721;SDS011;5412;59.450;18.124;2023-03-01T16:04:13;0.57;;;0.40;;
10721;SDS011;5412;59.450;18.124;2023-03-01T16:06:49;0.20;;;0.20;;
10721;SDS011;5412;59.450;18.124;2023-03-01T16:09:19;5.22;;;1.00;;
10721;SDS011;5412;59.450;18.124;2023-03-01T16:11:46;0.80;;;0.43;;
10721;SDS011;5412;59.450;18.124;2023-03-01T16:14:13;0.82;;;0.47;;
10721;SDS011;5412;59.450;18.124;2023-03-01T16:16:39;1.40;;;0.50;;
10721;SDS011;5412;59.450;18.124;2023-03-01T16:19:05;1.27;;;0.45;;
10721;SDS011;5412;59.450;18.124;2023-03-01T16:21:31;0.95;;;0.40;;
10721;SDS011;5412;59.450;18.124;2023-03-01T16:23:56;0.52;;;0.40;;
10721;SDS011;5412;59.450;18.124;2023-03-01T16:26:22;0.88;;;0.75;;
10721;SDS011;5412;59.450;18.124;2023-03-01T16:28:48;1.08;;;0.50;;
10721;SDS011;5412;59.450;18.124;2023-03-01T16:31:18;1.38;;;0.60;;
10721;SDS011;5412;59.450;18.124;2023-03-01T16:33:44;0.45;;;0.32;;
10721;SDS011;5412;59.450;18.124;2023-03-01T16:36:14;2.20;;;0.80;;
10721;SDS011;5412;59.450;18.124;2023-03-01T16:38:41;0.90;;;0.40;;
10721;SDS011;5412;59.450;18.124;2023-03-01T16:41:11;0.95;;;0.32;;
10721;SDS011;5412;59.450;18.124;2023-03-01T16:43:39;0.90;;;0.45;;
10721;SDS011;5412;59.450;18.124;2023-03-01T16:46:13;1.33;;;0.32;;
10721;SDS011;5412;59.450;18.124;2023-03-01T16:48:43;0.73;;;0.40;;
10721;SDS011;5412;59.450;18.124;2023-03-01T16:51:10;0.70;;;0.40;;
10721;SDS011;5412;59.450;18.124;2023-03-01T16:53:36;1.63;;;0.43;;
10721;SDS011;5412;59.450;18.124;2023-03-01T16:56:04;1.67;;;0.50;;
10721;SDS011;5412;59.450;18.124;2023-03-01T16:58:32;0.50;;;0.50;;
10721;SDS011;5412;59.450;18.124;2023-03-01T17:01:03;1.20;;;0.57;;
10721;SDS011;5412;59.450;18.124;2023-03-01T17:03:30;1.55;;;0.70;;
10721;SDS011;5412;59.450;18.124;2023-03-01T17:05:56;0.93;;;0.60;;
10721;SDS011;5412;59.450;18.124;2023-03-01T17:08:25;3.05;;;0.88;;
10721;SDS011;5412;59.450;18.124;2023-03-01T17:10:51;0.80;;;0.70;;
10721;SDS011;5412;59.450;18.124;2023-03-01T17:13:17;4.15;;;1.00;;
10721;SDS011;5412;59.450;18.124;2023-03-01T17:15:43;2.25;;;0.75;;
10721;SDS011;5412;59.450;18.124;2023-03-01T17:18:09;0.90;;;0.75;;
10721;SDS011;5412;59.450;18.124;2023-03-01T17:20:35;0.80;;;0.80;;